Wilsonia, California
Current Conditions -  °F | °C
As of 3:56 AM on Thursday 29 Jan 2015 (Local Time) from KBIH Reporting Station
Clear Clear  
Wind Chill: -1°   Ceiling: Unl
Heat Index:   Visibility: 10mi
Dew Point: -3°   Wind: 5mph
Humidity: 72%   Direction: 20°NNE
Pressure: 30.23"   Gusts: NA
Location:  36.7872°N, 118.66°W
Report Text: KBIH 291156Z AUTO 02004KT 10SM CLR 02/M03 A3023 RMK AO2 SLP223 T00171028 10056 20011 56005
Loading
Personal Weather Stations






























Interactive Weather Map New forecast layout! Learn more

10-Day Weather Forecast

Advertisements
Track Severe Weather on mobile